sensor_id;sensor_type;location;lat;lon;timestamp;P1;durP1;ratioP1;P2;durP2;ratioP2
31652;SDS011;18261;53.648;9.910;2023-07-28T00:00:51;10.57;;;6.50;;
31652;SDS011;18261;53.648;9.910;2023-07-28T00:03:17;11.35;;;6.60;;
31652;SDS011;18261;53.648;9.910;2023-07-28T00:05:43;8.68;;;6.20;;
31652;SDS011;18261;53.648;9.910;2023-07-28T00:08:09;9.43;;;6.20;;
31652;SDS011;18261;53.648;9.910;2023-07-28T00:10:39;8.75;;;5.68;;
31652;SDS011;18261;53.648;9.910;2023-07-28T00:13:06;7.95;;;6.50;;
31652;SDS011;18261;53.648;9.910;2023-07-28T00:15:32;7.28;;;6.03;;
31652;SDS011;18261;53.648;9.910;2023-07-28T00:17:58;11.63;;;6.10;;
31652;SDS011;18261;53.648;9.910;2023-07-28T00:20:24;9.43;;;6.13;;
31652;SDS011;18261;53.648;9.910;2023-07-28T00:22:51;8.20;;;5.72;;
31652;SDS011;18261;53.648;9.910;2023-07-28T00:25:17;8.88;;;5.90;;
31652;SDS011;18261;53.648;9.910;2023-07-28T00:27:43;8.98;;;6.18;;
31652;SDS011;18261;53.648;9.910;2023-07-28T00:30:10;10.00;;;5.93;;
31652;SDS011;18261;53.648;9.910;2023-07-28T00:32:36;7.63;;;5.95;;
31652;SDS011;18261;53.648;9.910;2023-07-28T00:35:02;7.22;;;5.82;;
31652;SDS011;18261;53.648;9.910;2023-07-28T00:37:28;7.05;;;5.63;;
31652;SDS011;18261;53.648;9.910;2023-07-28T00:39:54;8.55;;;6.30;;
31652;SDS011;18261;53.648;9.910;2023-07-28T00:42:20;7.00;;;5.30;;
31652;SDS011;18261;53.648;9.910;2023-07-28T00:44:46;8.07;;;6.18;;
31652;SDS011;18261;53.648;9.910;2023-07-28T00:47:12;7.60;;;6.10;;
31652;SDS011;18261;53.648;9.910;2023-07-28T00:49:39;6.72;;;5.38;;
31652;SDS011;18261;53.648;9.910;2023-07-28T00:52:06;7.88;;;6.45;;
31652;SDS011;18261;53.648;9.910;2023-07-28T00:54:33;6.57;;;5.53;;
31652;SDS011;18261;53.648;9.910;2023-07-28T00:56:59;9.63;;;5.78;;
31652;SDS011;18261;53.648;9.910;2023-07-28T00:59:26;8.02;;;5.95;;
31652;SDS011;18261;53.648;9.910;2023-07-28T01:01:52;8.95;;;6.05;;
31652;SDS011;18261;53.648;9.910;2023-07-28T01:04:18;8.90;;;6.57;;
31652;SDS011;18261;53.648;9.910;2023-07-28T01:09:14;9.30;;;6.07;;
31652;SDS011;18261;53.648;9.910;2023-07-28T01:11:54;8.80;;;6.50;;
31652;SDS011;18261;53.648;9.910;2023-07-28T01:14:20;7.28;;;5.70;;
31652;SDS011;18261;53.648;9.910;2023-07-28T01:16:46;8.55;;;5.80;;
31652;SDS011;18261;53.648;9.910;2023-07-28T01:19:12;6.70;;;5.65;;
31652;SDS011;18261;53.648;9.910;2023-07-28T01:21:38;6.75;;;5.55;;
31652;SDS011;18261;53.648;9.910;2023-07-28T01:26:43;8.23;;;5.80;;
31652;SDS011;18261;53.648;9.910;2023-07-28T01:29:10;6.50;;;5.53;;
31652;SDS011;18261;53.648;9.910;2023-07-28T01:31:37;7.63;;;5.63;;
31652;SDS011;18261;53.648;9.910;2023-07-28T01:34:05;8.25;;;5.57;;
31652;SDS011;18261;53.648;9.910;2023-07-28T01:36:31;7.13;;;5.60;;
31652;SDS011;18261;53.648;9.910;2023-07-28T01:38:57;6.90;;;6.00;;
31652;SDS011;18261;53.648;9.910;2023-07-28T01:41:23;6.38;;;5.28;;
31652;SDS011;18261;53.648;9.910;2023-07-28T01:43:49;7.78;;;5.93;;
31652;SDS011;18261;53.648;9.910;2023-07-28T01:46:15;9.23;;;6.18;;
31652;SDS011;18261;53.648;9.910;2023-07-28T01:48:41;10.00;;;6.63;;
31652;SDS011;18261;53.648;9.910;2023-07-28T01:51:07;7.07;;;6.28;;
31652;SDS011;18261;53.648;9.910;2023-07-28T01:53:33;7.82;;;6.05;;
31652;SDS011;18261;53.648;9.910;2023-07-28T01:55:59;8.40;;;5.88;;
31652;SDS011;18261;53.648;9.910;2023-07-28T01:58:25;8.57;;;5.93;;
31652;SDS011;18261;53.648;9.910;2023-07-28T02:00:52;7.28;;;6.00;;
31652;SDS011;18261;53.648;9.910;2023-07-28T02:03:18;8.63;;;6.25;;
31652;SDS011;18261;53.648;9.910;2023-07-28T02:05:44;7.68;;;5.75;;
31652;SDS011;18261;53.648;9.910;2023-07-28T02:08:10;9.20;;;6.20;;
31652;SDS011;18261;53.648;9.910;2023-07-28T02:10:36;8.63;;;6.07;;
31652;SDS011;18261;53.648;9.910;2023-07-28T02:13:02;6.70;;;5.68;;
31652;SDS011;18261;53.648;9.910;2023-07-28T02:15:28;9.00;;;5.60;;
31652;SDS011;18261;53.648;9.910;2023-07-28T02:17:54;7.13;;;6.10;;
31652;SDS011;18261;53.648;9.910;2023-07-28T02:20:19;7.07;;;5.68;;
31652;SDS011;18261;53.648;9.910;2023-07-28T02:22:45;7.95;;;5.88;;
31652;SDS011;18261;53.648;9.910;2023-07-28T02:25:12;9.73;;;7.03;;
31652;SDS011;18261;53.648;9.910;2023-07-28T02:27:38;8.85;;;7.57;;
31652;SDS011;18261;53.648;9.910;2023-07-28T02:30:04;8.65;;;6.30;;
31652;SDS011;18261;53.648;9.910;2023-07-28T02:32:30;7.32;;;6.03;;
31652;SDS011;18261;53.648;9.910;2023-07-28T02:34:57;8.05;;;6.45;;
31652;SDS011;18261;53.648;9.910;2023-07-28T02:37:23;7.18;;;5.53;;
31652;SDS011;18261;53.648;9.910;2023-07-28T02:39:49;6.32;;;5.22;;
31652;SDS011;18261;53.648;9.910;2023-07-28T02:42:15;8.02;;;6.10;;
31652;SDS011;18261;53.648;9.910;2023-07-28T02:44:41;7.20;;;5.97;;
31652;SDS011;18261;53.648;9.910;2023-07-28T02:47:07;6.75;;;5.85;;
31652;SDS011;18261;53.648;9.910;2023-07-28T02:49:33;8.45;;;5.72;;
31652;SDS011;18261;53.648;9.910;2023-07-28T02:51:59;5.90;;;5.30;;
31652;SDS011;18261;53.648;9.910;2023-07-28T02:54:25;6.00;;;4.40;;
31652;SDS011;18261;53.648;9.910;2023-07-28T02:56:51;6.22;;;4.75;;
31652;SDS011;18261;53.648;9.910;2023-07-28T02:59:17;5.35;;;4.60;;
31652;SDS011;18261;53.648;9.910;2023-07-28T03:01:43;5.80;;;4.65;;
31652;SDS011;18261;53.648;9.910;2023-07-28T03:04:09;6.32;;;5.00;;
31652;SDS011;18261;53.648;9.910;2023-07-28T03:06:35;6.28;;;4.85;;
31652;SDS011;18261;53.648;9.910;2023-07-28T03:09:01;6.30;;;4.38;;
31652;SDS011;18261;53.648;9.910;2023-07-28T03:11:27;4.85;;;4.07;;
31652;SDS011;18261;53.648;9.910;2023-07-28T03:13:53;5.22;;;4.45;;
31652;SDS011;18261;53.648;9.910;2023-07-28T03:16:19;7.03;;;4.25;;
31652;SDS011;18261;53.648;9.910;2023-07-28T03:18:45;4.88;;;4.43;;
31652;SDS011;18261;53.648;9.910;2023-07-28T03:21:11;5.00;;;4.07;;
31652;SDS011;18261;53.648;9.910;2023-07-28T03:23:37;4.75;;;4.05;;
31652;SDS011;18261;53.648;9.910;2023-07-28T03:26:03;7.70;;;4.75;;
31652;SDS011;18261;53.648;9.910;2023-07-28T03:28:29;8.43;;;5.13;;
31652;SDS011;18261;53.648;9.910;2023-07-28T03:30:55;5.00;;;4.20;;
31652;SDS011;18261;53.648;9.910;2023-07-28T03:33:21;6.53;;;4.82;;
31652;SDS011;18261;53.648;9.910;2023-07-28T03:35:47;7.68;;;5.47;;
31652;SDS011;18261;53.648;9.910;2023-07-28T03:38:13;7.20;;;4.70;;
31652;SDS011;18261;53.648;9.910;2023-07-28T03:40:39;4.93;;;4.13;;
31652;SDS011;18261;53.648;9.910;2023-07-28T03:43:05;5.90;;;4.30;;
31652;SDS011;18261;53.648;9.910;2023-07-28T03:45:31;4.32;;;3.83;;
31652;SDS011;18261;53.648;9.910;2023-07-28T03:47:57;5.18;;;4.30;;
31652;SDS011;18261;53.648;9.910;2023-07-28T03:50:23;8.50;;;4.35;;
31652;SDS011;18261;53.648;9.910;2023-07-28T03:52:51;5.10;;;3.92;;
31652;SDS011;18261;53.648;9.910;2023-07-28T03:55:17;5.47;;;3.80;;
31652;SDS011;18261;53.648;9.910;2023-07-28T03:57:43;4.30;;;3.58;;
31652;SDS011;18261;53.648;9.910;2023-07-28T04:00:09;4.15;;;3.75;;
31652;SDS011;18261;53.648;9.910;2023-07-28T04:02:35;4.07;;;3.50;;
31652;SDS011;18261;53.648;9.910;2023-07-28T04:05:01;7.20;;;3.80;;
31652;SDS011;18261;53.648;9.910;2023-07-28T04:07:27;4.20;;;3.80;;
31652;SDS011;18261;53.648;9.910;2023-07-28T04:09:53;4.45;;;3.55;;
31652;SDS011;18261;53.648;9.910;2023-07-28T04:12:19;6.03;;;4.35;;
31652;SDS011;18261;53.648;9.910;2023-07-28T04:14:45;4.70;;;4.20;;
31652;SDS011;18261;53.648;9.910;2023-07-28T04:17:11;4.25;;;3.70;;
31652;SDS011;18261;53.648;9.910;2023-07-28T04:19:37;8.13;;;6.82;;
31652;SDS011;18261;53.648;9.910;2023-07-28T04:22:03;7.78;;;4.85;;
31652;SDS011;18261;53.648;9.910;2023-07-28T04:24:29;6.35;;;4.93;;
31652;SDS011;18261;53.648;9.910;2023-07-28T04:26:55;5.55;;;4.57;;
31652;SDS011;18261;53.648;9.910;2023-07-28T04:29:21;4.82;;;4.20;;
31652;SDS011;18261;53.648;9.910;2023-07-28T04:31:47;6.32;;;5.18;;
31652;SDS011;18261;53.648;9.910;2023-07-28T04:34:13;6.55;;;4.20;;
31652;SDS011;18261;53.648;9.910;2023-07-28T04:36:39;5.22;;;4.25;;
31652;SDS011;18261;53.648;9.910;2023-07-28T04:39:05;4.90;;;4.15;;
31652;SDS011;18261;53.648;9.910;2023-07-28T04:41:31;9.85;;;5.35;;
31652;SDS011;18261;53.648;9.910;2023-07-28T04:43:57;5.93;;;4.72;;
31652;SDS011;18261;53.648;9.910;2023-07-28T04:46:23;6.43;;;4.40;;
31652;SDS011;18261;53.648;9.910;2023-07-28T04:48:49;8.68;;;5.57;;
31652;SDS011;18261;53.648;9.910;2023-07-28T04:51:15;9.65;;;8.05;;
31652;SDS011;18261;53.648;9.910;2023-07-28T04:53:41;7.03;;;5.53;;
31652;SDS011;18261;53.648;9.910;2023-07-28T04:56:07;7.35;;;5.25;;
31652;SDS011;18261;53.648;9.910;2023-07-28T04:58:33;7.47;;;5.18;;
31652;SDS011;18261;53.648;9.910;2023-07-28T05:00:59;7.72;;;4.93;;
31652;SDS011;18261;53.648;9.910;2023-07-28T05:03:26;5.03;;;4.40;;
31652;SDS011;18261;53.648;9.910;2023-07-28T05:05:52;5.60;;;4.72;;
31652;SDS011;18261;53.648;9.910;2023-07-28T05:08:18;5.22;;;4.30;;
31652;SDS011;18261;53.648;9.910;2023-07-28T05:10:44;6.40;;;5.20;;
31652;SDS011;18261;53.648;9.910;2023-07-28T05:13:10;6.25;;;4.30;;
31652;SDS011;18261;53.648;9.910;2023-07-28T05:15:36;4.43;;;4.03;;
31652;SDS011;18261;53.648;9.910;2023-07-28T05:18:02;5.47;;;4.50;;
31652;SDS011;18261;53.648;9.910;2023-07-28T05:20:28;9.23;;;4.85;;
31652;SDS011;18261;53.648;9.910;2023-07-28T05:22:54;5.47;;;4.60;;
31652;SDS011;18261;53.648;9.910;2023-07-28T05:25:20;4.63;;;4.05;;
31652;SDS011;18261;53.648;9.910;2023-07-28T05:27:47;6.95;;;4.47;;
31652;SDS011;18261;53.648;9.910;2023-07-28T05:30:13;5.07;;;3.78;;
31652;SDS011;18261;53.648;9.910;2023-07-28T05:32:39;5.50;;;4.90;;
31652;SDS011;18261;53.648;9.910;2023-07-28T05:35:05;5.35;;;3.70;;
31652;SDS011;18261;53.648;9.910;2023-07-28T05:37:31;5.20;;;4.15;;
31652;SDS011;18261;53.648;9.910;2023-07-28T05:39:57;6.47;;;3.92;;
31652;SDS011;18261;53.648;9.910;2023-07-28T05:42:23;4.45;;;4.05;;
31652;SDS011;18261;53.648;9.910;2023-07-28T05:44:50;5.35;;;4.53;;
31652;SDS011;18261;53.648;9.910;2023-07-28T05:47:18;5.35;;;4.22;;
31652;SDS011;18261;53.648;9.910;2023-07-28T05:49:44;7.20;;;5.45;;
31652;SDS011;18261;53.648;9.910;2023-07-28T05:52:10;6.68;;;5.13;;
31652;SDS011;18261;53.648;9.910;2023-07-28T05:54:36;7.63;;;4.13;;
31652;SDS011;18261;53.648;9.910;2023-07-28T05:57:02;4.35;;;3.53;;
31652;SDS011;18261;53.648;9.910;2023-07-28T05:59:28;5.68;;;4.13;;
31652;SDS011;18261;53.648;9.910;2023-07-28T06:01:54;4.95;;;4.05;;
31652;SDS011;18261;53.648;9.910;2023-07-28T06:04:20;5.40;;;4.07;;
31652;SDS011;18261;53.648;9.910;2023-07-28T06:06:47;5.85;;;4.18;;
31652;SDS011;18261;53.648;9.910;2023-07-28T06:09:13;5.57;;;4.55;;
31652;SDS011;18261;53.648;9.910;2023-07-28T06:11:39;5.28;;;4.63;;
31652;SDS011;18261;53.648;9.910;2023-07-28T06:14:05;5.40;;;4.15;;
31652;SDS011;18261;53.648;9.910;2023-07-28T06:16:31;6.65;;;4.70;;
31652;SDS011;18261;53.648;9.910;2023-07-28T06:18:57;4.57;;;3.80;;
31652;SDS011;18261;53.648;9.910;2023-07-28T06:21:23;5.05;;;4.15;;
31652;SDS011;18261;53.648;9.910;2023-07-28T06:23:49;4.50;;;4.00;;
31652;SDS011;18261;53.648;9.910;2023-07-28T06:26:15;6.60;;;3.95;;
31652;SDS011;18261;53.648;9.910;2023-07-28T06:28:41;9.40;;;5.18;;
31652;SDS011;18261;53.648;9.910;2023-07-28T06:31:07;4.70;;;3.92;;
31652;SDS011;18261;53.648;9.910;2023-07-28T06:33:34;4.97;;;3.92;;
31652;SDS011;18261;53.648;9.910;2023-07-28T06:36:01;6.55;;;3.88;;
31652;SDS011;18261;53.648;9.910;2023-07-28T06:38:27;5.05;;;3.97;;
31652;SDS011;18261;53.648;9.910;2023-07-28T06:40:53;4.72;;;3.90;;
31652;SDS011;18261;53.648;9.910;2023-07-28T06:43:20;5.35;;;4.40;;
31652;SDS011;18261;53.648;9.910;2023-07-28T06:45:46;5.88;;;4.00;;
31652;SDS011;18261;53.648;9.910;2023-07-28T06:48:12;6.88;;;4.82;;
31652;SDS011;18261;53.648;9.910;2023-07-28T06:50:38;5.25;;;4.35;;
31652;SDS011;18261;53.648;9.910;2023-07-28T06:53:04;6.50;;;5.30;;
31652;SDS011;18261;53.648;9.910;2023-07-28T06:55:30;6.25;;;4.60;;
31652;SDS011;18261;53.648;9.910;2023-07-28T06:57:56;7.63;;;5.57;;
31652;SDS011;18261;53.648;9.910;2023-07-28T07:00:22;6.18;;;4.65;;
31652;SDS011;18261;53.648;9.910;2023-07-28T07:02:48;6.15;;;4.65;;
31652;SDS011;18261;53.648;9.910;2023-07-28T07:05:14;5.53;;;4.10;;
31652;SDS011;18261;53.648;9.910;2023-07-28T07:07:40;6.07;;;3.72;;
31652;SDS011;18261;53.648;9.910;2023-07-28T07:10:06;3.85;;;3.17;;
31652;SDS011;18261;53.648;9.910;2023-07-28T07:12:32;8.68;;;3.72;;
31652;SDS011;18261;53.648;9.910;2023-07-28T07:14:58;3.08;;;2.75;;
31652;SDS011;18261;53.648;9.910;2023-07-28T07:17:24;2.88;;;2.33;;
31652;SDS011;18261;53.648;9.910;2023-07-28T07:19:50;2.47;;;2.28;;
31652;SDS011;18261;53.648;9.910;2023-07-28T07:22:16;3.63;;;3.20;;
31652;SDS011;18261;53.648;9.910;2023-07-28T07:24:43;6.20;;;2.95;;
31652;SDS011;18261;53.648;9.910;2023-07-28T07:27:09;4.90;;;3.75;;
31652;SDS011;18261;53.648;9.910;2023-07-28T07:29:38;5.28;;;4.13;;
31652;SDS011;18261;53.648;9.910;2023-07-28T07:32:05;5.18;;;4.28;;
31652;SDS011;18261;53.648;9.910;2023-07-28T07:34:31;7.65;;;4.55;;
31652;SDS011;18261;53.648;9.910;2023-07-28T07:36:57;6.35;;;5.30;;
31652;SDS011;18261;53.648;9.910;2023-07-28T07:39:23;6.25;;;5.20;;
31652;SDS011;18261;53.648;9.910;2023-07-28T07:41:49;6.30;;;4.22;;
31652;SDS011;18261;53.648;9.910;2023-07-28T07:44:15;5.82;;;4.50;;
31652;SDS011;18261;53.648;9.910;2023-07-28T07:46:41;6.18;;;4.80;;
31652;SDS011;18261;53.648;9.910;2023-07-28T07:49:07;5.78;;;4.55;;
31652;SDS011;18261;53.648;9.910;2023-07-28T07:51:33;5.85;;;4.22;;
31652;SDS011;18261;53.648;9.910;2023-07-28T07:53:59;6.10;;;4.45;;
31652;SDS011;18261;53.648;9.910;2023-07-28T07:56:28;5.85;;;4.53;;
31652;SDS011;18261;53.648;9.910;2023-07-28T07:58:55;4.43;;;3.92;;
31652;SDS011;18261;53.648;9.910;2023-07-28T08:01:22;6.47;;;4.30;;
31652;SDS011;18261;53.648;9.910;2023-07-28T08:03:48;5.97;;;4.25;;
31652;SDS011;18261;53.648;9.910;2023-07-28T08:06:14;8.95;;;4.93;;
31652;SDS011;18261;53.648;9.910;2023-07-28T08:08:40;5.97;;;4.40;;
31652;SDS011;18261;53.648;9.910;2023-07-28T08:11:06;6.18;;;3.88;;
31652;SDS011;18261;53.648;9.910;2023-07-28T08:13:32;5.63;;;3.70;;
31652;SDS011;18261;53.648;9.910;2023-07-28T08:15:58;5.93;;;3.70;;
31652;SDS011;18261;53.648;9.910;2023-07-28T08:18:24;4.90;;;3.50;;
31652;SDS011;18261;53.648;9.910;2023-07-28T08:20:50;6.32;;;4.35;;
31652;SDS011;18261;53.648;9.910;2023-07-28T08:23:16;6.05;;;4.05;;
31652;SDS011;18261;53.648;9.910;2023-07-28T08:25:42;7.93;;;3.75;;
31652;SDS011;18261;53.648;9.910;2023-07-28T08:28:08;6.03;;;3.33;;
31652;SDS011;18261;53.648;9.910;2023-07-28T08:30:34;4.32;;;3.15;;
31652;SDS011;18261;53.648;9.910;2023-07-28T08:33:01;4.25;;;2.83;;
31652;SDS011;18261;53.648;9.910;2023-07-28T08:35:28;3.70;;;2.88;;
31652;SDS011;18261;53.648;9.910;2023-07-28T08:37:54;2.70;;;2.47;;
31652;SDS011;18261;53.648;9.910;2023-07-28T08:40:20;4.70;;;3.15;;
31652;SDS011;18261;53.648;9.910;2023-07-28T08:42:46;18.02;;;12.15;;
31652;SDS011;18261;53.648;9.910;2023-07-28T08:45:14;7.63;;;4.75;;
31652;SDS011;18261;53.648;9.910;2023-07-28T08:47:40;5.03;;;3.35;;
31652;SDS011;18261;53.648;9.910;2023-07-28T08:50:06;5.70;;;3.30;;
31652;SDS011;18261;53.648;9.910;2023-07-28T08:52:32;4.28;;;3.10;;
31652;SDS011;18261;53.648;9.910;2023-07-28T08:54:58;6.15;;;3.00;;
31652;SDS011;18261;53.648;9.910;2023-07-28T08:57:24;6.65;;;3.40;;
31652;SDS011;18261;53.648;9.910;2023-07-28T08:59:50;8.98;;;3.40;;
31652;SDS011;18261;53.648;9.910;2023-07-28T09:02:18;4.72;;;3.05;;
31652;SDS011;18261;53.648;9.910;2023-07-28T09:04:45;4.20;;;2.50;;
31652;SDS011;18261;53.648;9.910;2023-07-28T09:07:11;3.08;;;2.55;;
31652;SDS011;18261;53.648;9.910;2023-07-28T09:09:38;3.53;;;2.67;;
31652;SDS011;18261;53.648;9.910;2023-07-28T09:12:04;6.20;;;2.80;;
31652;SDS011;18261;53.648;9.910;2023-07-28T09:14:30;5.03;;;3.30;;
31652;SDS011;18261;53.648;9.910;2023-07-28T09:16:56;3.63;;;2.70;;
31652;SDS011;18261;53.648;9.910;2023-07-28T09:19:31;5.15;;;2.40;;
31652;SDS011;18261;53.648;9.910;2023-07-28T09:21:58;3.47;;;2.80;;
31652;SDS011;18261;53.648;9.910;2023-07-28T09:24:30;4.03;;;2.85;;
31652;SDS011;18261;53.648;9.910;2023-07-28T09:26:57;4.22;;;2.70;;
31652;SDS011;18261;53.648;9.910;2023-07-28T09:29:23;2.88;;;2.30;;
31652;SDS011;18261;53.648;9.910;2023-07-28T09:31:50;5.05;;;2.10;;
31652;SDS011;18261;53.648;9.910;2023-07-28T09:34:25;3.03;;;2.15;;
31652;SDS011;18261;53.648;9.910;2023-07-28T09:36:53;2.78;;;2.00;;
31652;SDS011;18261;53.648;9.910;2023-07-28T09:39:19;3.17;;;2.08;;
31652;SDS011;18261;53.648;9.910;2023-07-28T09:41:46;3.15;;;1.85;;
31652;SDS011;18261;53.648;9.910;2023-07-28T09:44:12;3.65;;;2.33;;
31652;SDS011;18261;53.648;9.910;2023-07-28T09:46:42;3.80;;;1.92;;
31652;SDS011;18261;53.648;9.910;2023-07-28T09:49:14;2.20;;;1.83;;
31652;SDS011;18261;53.648;9.910;2023-07-28T09:51:41;2.40;;;2.20;;
31652;SDS011;18261;53.648;9.910;2023-07-28T09:54:23;2.58;;;2.10;;
31652;SDS011;18261;53.648;9.910;2023-07-28T09:56:53;2.10;;;1.73;;
31652;SDS011;18261;53.648;9.910;2023-07-28T09:59:21;3.20;;;2.30;;
31652;SDS011;18261;53.648;9.910;2023-07-28T10:01:49;5.03;;;2.83;;
31652;SDS011;18261;53.648;9.910;2023-07-28T10:04:16;4.15;;;1.83;;
31652;SDS011;18261;53.648;9.910;2023-07-28T10:06:42;2.40;;;1.80;;
31652;SDS011;18261;53.648;9.910;2023-07-28T10:09:08;3.15;;;2.20;;
31652;SDS011;18261;53.648;9.910;2023-07-28T10:11:34;1.95;;;1.70;;
31652;SDS011;18261;53.648;9.910;2023-07-28T10:14:00;3.10;;;2.15;;
31652;SDS011;18261;53.648;9.910;2023-07-28T10:16:30;5.35;;;2.15;;
31652;SDS011;18261;53.648;9.910;2023-07-28T10:18:58;3.90;;;2.10;;
31652;SDS011;18261;53.648;9.910;2023-07-28T10:21:27;2.88;;;2.00;;
31652;SDS011;18261;53.648;9.910;2023-07-28T10:23:55;4.07;;;2.60;;
31652;SDS011;18261;53.648;9.910;2023-07-28T10:26:31;22.08;;;15.32;;
31652;SDS011;18261;53.648;9.910;2023-07-28T10:29:07;2.67;;;2.08;;
31652;SDS011;18261;53.648;9.910;2023-07-28T10:31:33;2.25;;;1.98;;
31652;SDS011;18261;53.648;9.910;2023-07-28T10:33:59;3.97;;;2.00;;
31652;SDS011;18261;53.648;9.910;2023-07-28T10:39:05;5.35;;;2.63;;
31652;SDS011;18261;53.648;9.910;2023-07-28T10:41:37;6.70;;;2.55;;
31652;SDS011;18261;53.648;9.910;2023-07-28T10:44:03;5.50;;;2.60;;
31652;SDS011;18261;53.648;9.910;2023-07-28T10:46:30;4.32;;;2.20;;
31652;SDS011;18261;53.648;9.910;2023-07-28T10:48:57;2.60;;;2.20;;
31652;SDS011;18261;53.648;9.910;2023-07-28T10:51:29;2.50;;;2.30;;
31652;SDS011;18261;53.648;9.910;2023-07-28T10:53:58;3.85;;;2.60;;
31652;SDS011;18261;53.648;9.910;2023-07-28T10:56:25;3.08;;;2.20;;
31652;SDS011;18261;53.648;9.910;2023-07-28T11:01:25;4.45;;;3.42;;
31652;SDS011;18261;53.648;9.910;2023-07-28T11:03:50;3.80;;;2.63;;
31652;SDS011;18261;53.648;9.910;2023-07-28T11:06:16;6.97;;;3.17;;
31652;SDS011;18261;53.648;9.910;2023-07-28T11:08:42;5.78;;;2.67;;
31652;SDS011;18261;53.648;9.910;2023-07-28T11:11:08;6.53;;;3.22;;
31652;SDS011;18261;53.648;9.910;2023-07-28T11:13:35;5.47;;;2.75;;
31652;SDS011;18261;53.648;9.910;2023-07-28T11:16:01;4.70;;;2.60;;
31652;SDS011;18261;53.648;9.910;2023-07-28T11:18:29;5.07;;;2.97;;
31652;SDS011;18261;53.648;9.910;2023-07-28T11:20:55;7.05;;;3.50;;
31652;SDS011;18261;53.648;9.910;2023-07-28T11:23:21;5.43;;;3.72;;
31652;SDS011;18261;53.648;9.910;2023-07-28T11:25:48;2.95;;;2.42;;
31652;SDS011;18261;53.648;9.910;2023-07-28T11:28:15;3.90;;;2.88;;
31652;SDS011;18261;53.648;9.910;2023-07-28T11:30:41;3.85;;;2.50;;
31652;SDS011;18261;53.648;9.910;2023-07-28T11:33:09;2.88;;;2.20;;
31652;SDS011;18261;53.648;9.910;2023-07-28T11:35:37;8.35;;;4.22;;
31652;SDS011;18261;53.648;9.910;2023-07-28T11:38:04;12.30;;;6.65;;
31652;SDS011;18261;53.648;9.910;2023-07-28T11:40:30;6.80;;;5.10;;
31652;SDS011;18261;53.648;9.910;2023-07-28T11:42:56;3.42;;;2.80;;
31652;SDS011;18261;53.648;9.910;2023-07-28T11:45:22;5.45;;;2.40;;
31652;SDS011;18261;53.648;9.910;2023-07-28T11:50:27;2.88;;;2.17;;
31652;SDS011;18261;53.648;9.910;2023-07-28T11:52:53;2.92;;;2.00;;
31652;SDS011;18261;53.648;9.910;2023-07-28T11:55:21;3.28;;;2.88;;
31652;SDS011;18261;53.648;9.910;2023-07-28T11:57:47;2.67;;;2.05;;
31652;SDS011;18261;53.648;9.910;2023-07-28T12:00:13;2.50;;;2.20;;
31652;SDS011;18261;53.648;9.910;2023-07-28T12:02:42;3.63;;;2.42;;
31652;SDS011;18261;53.648;9.910;2023-07-28T12:05:12;3.08;;;2.40;;
31652;SDS011;18261;53.648;9.910;2023-07-28T12:07:38;5.07;;;2.97;;
31652;SDS011;18261;53.648;9.910;2023-07-28T12:10:04;2.83;;;2.33;;
31652;SDS011;18261;53.648;9.910;2023-07-28T12:12:39;2.88;;;2.28;;
31652;SDS011;18261;53.648;9.910;2023-07-28T12:15:19;2.05;;;1.88;;
31652;SDS011;18261;53.648;9.910;2023-07-28T12:20:33;3.53;;;2.40;;
31652;SDS011;18261;53.648;9.910;2023-07-28T12:23:00;3.58;;;2.25;;
31652;SDS011;18261;53.648;9.910;2023-07-28T12:25:26;3.00;;;2.20;;
31652;SDS011;18261;53.648;9.910;2023-07-28T12:27:52;2.58;;;2.03;;
31652;SDS011;18261;53.648;9.910;2023-07-28T12:30:18;2.65;;;1.80;;
31652;SDS011;18261;53.648;9.910;2023-07-28T12:32:44;2.92;;;1.40;;
31652;SDS011;18261;53.648;9.910;2023-07-28T12:35:11;1.33;;;1.23;;
31652;SDS011;18261;53.648;9.910;2023-07-28T12:37:37;1.63;;;1.30;;
31652;SDS011;18261;53.648;9.910;2023-07-28T12:40:03;2.05;;;1.63;;
31652;SDS011;18261;53.648;9.910;2023-07-28T12:42:31;3.03;;;2.72;;
31652;SDS011;18261;53.648;9.910;2023-07-28T12:44:57;6.95;;;4.60;;
31652;SDS011;18261;53.648;9.910;2023-07-28T12:47:23;2.35;;;1.73;;
31652;SDS011;18261;53.648;9.910;2023-07-28T12:49:49;3.45;;;2.13;;
31652;SDS011;18261;53.648;9.910;2023-07-28T12:52:15;7.18;;;3.83;;
31652;SDS011;18261;53.648;9.910;2023-07-28T12:54:41;3.17;;;2.45;;
31652;SDS011;18261;53.648;9.910;2023-07-28T12:57:10;4.15;;;1.77;;
31652;SDS011;18261;53.648;9.910;2023-07-28T12:59:37;3.30;;;1.35;;
31652;SDS011;18261;53.648;9.910;2023-07-28T13:02:04;1.30;;;1.17;;
31652;SDS011;18261;53.648;9.910;2023-07-28T13:04:30;1.50;;;1.20;;
31652;SDS011;18261;53.648;9.910;2023-07-28T13:06:56;0.90;;;0.90;;
31652;SDS011;18261;53.648;9.910;2023-07-28T13:09:22;2.55;;;1.30;;
31652;SDS011;18261;53.648;9.910;2023-07-28T13:11:48;1.95;;;1.25;;
31652;SDS011;18261;53.648;9.910;2023-07-28T13:14:14;2.72;;;1.50;;
31652;SDS011;18261;53.648;9.910;2023-07-28T13:16:40;2.78;;;1.63;;
31652;SDS011;18261;53.648;9.910;2023-07-28T13:19:06;1.10;;;0.93;;
31652;SDS011;18261;53.648;9.910;2023-07-28T13:21:32;1.40;;;1.27;;
31652;SDS011;18261;53.648;9.910;2023-07-28T13:23:58;2.00;;;1.25;;
31652;SDS011;18261;53.648;9.910;2023-07-28T13:26:24;1.27;;;1.17;;
31652;SDS011;18261;53.648;9.910;2023-07-28T13:28:51;1.23;;;0.93;;
31652;SDS011;18261;53.648;9.910;2023-07-28T13:31:17;5.70;;;1.30;;
31652;SDS011;18261;53.648;9.910;2023-07-28T13:33:43;1.90;;;1.23;;
31652;SDS011;18261;53.648;9.910;2023-07-28T13:36:09;4.30;;;2.70;;
31652;SDS011;18261;53.648;9.910;2023-07-28T13:38:35;2.80;;;1.38;;
31652;SDS011;18261;53.648;9.910;2023-07-28T13:41:03;2.65;;;1.10;;
31652;SDS011;18261;53.648;9.910;2023-07-28T13:43:30;2.40;;;1.20;;
31652;SDS011;18261;53.648;9.910;2023-07-28T13:45:56;1.60;;;1.08;;
31652;SDS011;18261;53.648;9.910;2023-07-28T13:48:23;1.20;;;0.90;;
31652;SDS011;18261;53.648;9.910;2023-07-28T13:50:49;2.08;;;0.90;;
31652;SDS011;18261;53.648;9.910;2023-07-28T13:53:15;1.15;;;1.00;;
31652;SDS011;18261;53.648;9.910;2023-07-28T13:55:41;1.20;;;1.10;;
31652;SDS011;18261;53.648;9.910;2023-07-28T13:58:07;2.08;;;1.08;;
31652;SDS011;18261;53.648;9.910;2023-07-28T14:00:33;1.23;;;0.95;;
31652;SDS011;18261;53.648;9.910;2023-07-28T14:02:59;1.48;;;1.13;;
31652;SDS011;18261;53.648;9.910;2023-07-28T14:05:25;2.97;;;1.75;;
31652;SDS011;18261;53.648;9.910;2023-07-28T14:07:51;3.33;;;1.10;;
31652;SDS011;18261;53.648;9.910;2023-07-28T14:10:17;1.35;;;1.02;;
31652;SDS011;18261;53.648;9.910;2023-07-28T14:12:43;1.90;;;1.02;;
31652;SDS011;18261;53.648;9.910;2023-07-28T14:15:09;2.08;;;1.10;;
31652;SDS011;18261;53.648;9.910;2023-07-28T14:17:35;2.45;;;1.35;;
31652;SDS011;18261;53.648;9.910;2023-07-28T14:20:01;2.78;;;1.25;;
31652;SDS011;18261;53.648;9.910;2023-07-28T14:22:27;3.88;;;1.50;;
31652;SDS011;18261;53.648;9.910;2023-07-28T14:24:53;1.63;;;1.20;;
31652;SDS011;18261;53.648;9.910;2023-07-28T14:27:19;1.95;;;0.98;;
31652;SDS011;18261;53.648;9.910;2023-07-28T14:29:45;2.15;;;1.30;;
31652;SDS011;18261;53.648;9.910;2023-07-28T14:32:11;6.00;;;1.58;;
31652;SDS011;18261;53.648;9.910;2023-07-28T14:34:37;2.15;;;1.33;;
31652;SDS011;18261;53.648;9.910;2023-07-28T14:37:03;3.45;;;1.23;;
31652;SDS011;18261;53.648;9.910;2023-07-28T14:39:33;2.10;;;1.10;;
31652;SDS011;18261;53.648;9.910;2023-07-28T14:41:59;1.10;;;1.00;;
31652;SDS011;18261;53.648;9.910;2023-07-28T14:44:25;1.73;;;1.05;;
31652;SDS011;18261;53.648;9.910;2023-07-28T14:46:51;3.80;;;1.92;;
31652;SDS011;18261;53.648;9.910;2023-07-28T14:49:17;5.40;;;1.58;;
31652;SDS011;18261;53.648;9.910;2023-07-28T14:51:43;4.03;;;2.03;;
31652;SDS011;18261;53.648;9.910;2023-07-28T14:54:09;6.53;;;1.63;;
31652;SDS011;18261;53.648;9.910;2023-07-28T14:56:36;3.80;;;1.20;;
31652;SDS011;18261;53.648;9.910;2023-07-28T14:59:02;2.08;;;1.38;;